ADDS METAR Data INFO
IDs: Format: Raw Decoded Include TAF

Data at: 0732 UTC 16 Jan 2018

METAR for:KBEA (Beeville Muni, TX, US)
Text:KBEA 160715Z AUTO 06004KT 10SM SCT085 12/11 A3029 RMK AO2 T01160112
Temperature: 11.6°C ( 53°F)
Dewpoint: 11.2°C ( 52°F) [RH = 97%]
Pressure (altimeter):30.29 inches Hg (1025.8 mb)
Winds:from the ENE (60 degrees) at 5 MPH (4 knots; 2.1 m/s)
Visibility:10 or more sm (16+ km)
Ceiling:at least 12,000 feet AGL
Clouds: scattered clouds at 8500 feet AGL
QC Flag:automated observation with no human augmentation